createdAt,value
2018-11-25T00:02:11.352Z,14.53
2018-11-25T00:04:40.073Z,15.00
2018-11-25T00:07:08.447Z,15.43
2018-11-25T00:09:36.747Z,15.33
2018-11-25T00:12:05.103Z,15.27
2018-11-25T00:14:33.400Z,14.00
2018-11-25T00:17:01.722Z,15.87
2018-11-25T00:19:30.016Z,14.37
2018-11-25T00:21:58.346Z,15.57
2018-11-25T00:24:26.652Z,14.30
2018-11-25T00:26:55.158Z,14.83
2018-11-25T00:29:23.506Z,14.90
2018-11-25T00:31:51.857Z,15.33
2018-11-25T00:34:20.159Z,14.27
2018-11-25T00:36:48.486Z,14.63
2018-11-25T00:39:16.987Z,14.43
2018-11-25T00:41:45.300Z,15.13
2018-11-25T00:44:13.599Z,15.07
2018-11-25T00:46:42.510Z,14.37
2018-11-25T00:49:10.807Z,14.47
2018-11-25T00:51:39.119Z,14.60
2018-11-25T00:54:07.422Z,15.20
2018-11-25T00:56:35.784Z,15.33
2018-11-25T00:59:04.075Z,14.30
2018-11-25T01:01:32.381Z,15.23
2018-11-25T01:04:00.747Z,13.83
2018-11-25T01:06:29.087Z,14.53
2018-11-25T01:08:57.402Z,14.60
2018-11-25T01:11:25.706Z,14.63
2018-11-25T01:13:54.015Z,14.07
2018-11-25T01:16:22.327Z,13.50
2018-11-25T01:18:50.630Z,15.27
2018-11-25T01:21:18.933Z,14.40
2018-11-25T01:23:47.251Z,14.87
2018-11-25T01:26:15.540Z,13.90
2018-11-25T01:28:43.861Z,14.13
2018-11-25T01:31:12.198Z,14.03
2018-11-25T01:33:40.520Z,14.23
2018-11-25T01:36:08.811Z,14.63
2018-11-25T01:38:37.124Z,14.17
2018-11-25T01:41:05.867Z,14.37
2018-11-25T01:43:34.175Z,15.03
2018-11-25T01:46:02.475Z,13.40
2018-11-25T01:48:30.787Z,14.10
2018-11-25T01:50:59.079Z,14.63
2018-11-25T01:53:27.388Z,13.70
2018-11-25T01:55:55.688Z,14.27
2018-11-25T01:58:24.007Z,14.17
2018-11-25T02:00:52.308Z,13.97
2018-11-25T02:03:20.619Z,14.20
2018-11-25T02:05:48.924Z,13.23
2018-11-25T02:08:17.231Z,14.20
2018-11-25T02:10:45.523Z,13.77
2018-11-25T02:13:13.843Z,15.07
2018-11-25T02:15:42.144Z,14.07
2018-11-25T02:18:10.470Z,14.67
2018-11-25T02:20:39.003Z,14.60
2018-11-25T02:23:07.336Z,14.10
2018-11-25T02:25:35.629Z,14.10
2018-11-25T02:28:03.966Z,15.13
2018-11-25T02:30:32.284Z,15.77
2018-11-25T02:33:00.670Z,15.37
2018-11-25T02:35:28.977Z,15.27
2018-11-25T02:37:57.366Z,15.00
2018-11-25T02:40:25.719Z,16.37
2018-11-25T02:43:05.613Z,16.60
2018-11-25T02:45:33.952Z,16.63
2018-11-25T02:48:02.269Z,17.23
2018-11-25T02:50:31.135Z,16.70
2018-11-25T02:53:02.756Z,16.33
2018-11-25T02:55:31.177Z,17.07
2018-11-25T02:58:00.811Z,16.30
2018-11-25T03:00:27.837Z,17.20
2018-11-25T03:02:56.143Z,16.73
2018-11-25T03:05:24.464Z,17.50
2018-11-25T03:07:52.772Z,17.10
2018-11-25T03:10:21.126Z,15.37
2018-11-25T03:12:49.428Z,16.07
2018-11-25T03:15:18.167Z,17.37
2018-11-25T03:17:46.509Z,15.27
2018-11-25T03:20:15.817Z,14.30
2018-11-25T03:22:44.114Z,15.30
2018-11-25T03:25:20.248Z,14.87
2018-11-25T03:27:48.628Z,15.17
2018-11-25T03:30:17.817Z,13.63
2018-11-25T03:32:47.001Z,12.93
2018-11-25T03:35:15.337Z,13.30
2018-11-25T03:37:43.671Z,13.63
2018-11-25T03:40:13.788Z,14.03
2018-11-25T03:42:42.141Z,12.43
2018-11-25T03:45:12.741Z,12.80
2018-11-25T03:47:41.048Z,11.97
2018-11-25T03:50:10.086Z,12.90
2018-11-25T03:52:38.452Z,12.03
2018-11-25T03:55:15.264Z,12.80
2018-11-25T03:57:43.557Z,11.73
2018-11-25T04:00:20.389Z,12.30
2018-11-25T04:02:49.468Z,12.77
2018-11-25T04:05:17.939Z,11.60
2018-11-25T04:07:46.260Z,11.87
2018-11-25T04:10:16.362Z,12.23
2018-11-25T04:12:44.688Z,11.27
2018-11-25T04:15:18.663Z,11.47
2018-11-25T04:17:47.539Z,11.50
2018-11-25T04:20:16.852Z,11.53
2018-11-25T04:22:45.180Z,11.03
2018-11-25T04:25:13.713Z,11.27
2018-11-25T04:27:42.042Z,11.07
2018-11-25T04:30:11.593Z,10.90
2018-11-25T04:32:39.927Z,10.47
2018-11-25T04:35:10.167Z,10.60
2018-11-25T04:37:38.504Z,10.93
2018-11-25T04:40:08.422Z,9.57
2018-11-25T04:42:36.748Z,9.53
2018-11-25T04:45:05.662Z,10.30
2018-11-25T04:47:33.986Z,10.33
2018-11-25T04:50:02.290Z,9.73
2018-11-25T04:52:30.600Z,9.37
2018-11-25T04:54:58.902Z,10.30
2018-11-25T04:57:27.215Z,9.13
2018-11-25T04:59:55.503Z,8.70
2018-11-25T05:02:23.826Z,9.13
2018-11-25T05:04:52.186Z,8.73
2018-11-25T05:07:20.547Z,8.57
2018-11-25T05:09:48.839Z,8.63
2018-11-25T05:12:17.156Z,8.57
2018-11-25T05:14:45.442Z,8.00
2018-11-25T05:17:13.764Z,7.67
2018-11-25T05:19:42.115Z,8.53
2018-11-25T05:22:10.428Z,8.67
2018-11-25T05:24:38.852Z,7.80
2018-11-25T05:27:07.191Z,8.00
2018-11-25T05:29:35.523Z,8.23
2018-11-25T05:32:03.876Z,8.13
2018-11-25T05:34:32.177Z,8.43
2018-11-25T05:37:00.495Z,8.13
2018-11-25T05:39:28.791Z,7.83
2018-11-25T05:41:57.148Z,8.47
2018-11-25T05:44:25.451Z,7.73
2018-11-25T05:46:53.762Z,8.33
2018-11-25T05:49:22.076Z,7.80
2018-11-25T05:51:50.406Z,7.80
2018-11-25T05:54:18.703Z,9.07
2018-11-25T05:56:47.031Z,8.10
2018-11-25T05:59:15.319Z,8.33
2018-11-25T06:01:43.633Z,7.90
2018-11-25T06:04:11.939Z,8.07
2018-11-25T06:06:40.436Z,7.83
2018-11-25T06:09:09.122Z,8.23
2018-11-25T06:11:37.424Z,8.10
2018-11-25T06:14:05.757Z,8.27
2018-11-25T06:16:34.077Z,8.47
2018-11-25T06:19:02.396Z,8.17
2018-11-25T06:21:30.693Z,8.63
2018-11-25T06:23:59.007Z,8.43
2018-11-25T06:26:27.300Z,8.13
2018-11-25T06:28:55.643Z,8.37
2018-11-25T06:31:23.948Z,9.17
2018-11-25T06:33:52.260Z,8.93
2018-11-25T06:36:20.559Z,8.60
2018-11-25T06:38:48.868Z,8.43
2018-11-25T06:41:17.176Z,9.47
2018-11-25T06:43:45.487Z,8.67
2018-11-25T06:46:14.112Z,8.03
2018-11-25T06:48:42.424Z,8.30
2018-11-25T06:51:10.727Z,8.13
2018-11-25T06:53:39.036Z,8.90
2018-11-25T06:56:07.339Z,8.47
2018-11-25T06:58:35.697Z,8.63
2018-11-25T07:01:04.011Z,8.90
2018-11-25T07:03:32.332Z,8.93
2018-11-25T07:06:00.627Z,9.13
2018-11-25T07:08:28.946Z,8.63
2018-11-25T07:10:57.243Z,8.80
2018-11-25T07:13:25.556Z,9.27
2018-11-25T07:15:53.858Z,8.73
2018-11-25T07:18:22.192Z,8.67
2018-11-25T07:20:50.579Z,9.37
2018-11-25T07:23:18.889Z,8.40
2018-11-25T07:25:47.177Z,9.50
2018-11-25T07:28:18.416Z,8.90
2018-11-25T07:30:43.893Z,9.10
2018-11-25T07:33:12.194Z,9.10
2018-11-25T07:35:40.479Z,9.03
2018-11-25T07:38:08.800Z,14.73
2018-11-25T07:40:37.091Z,9.47
2018-11-25T07:43:05.844Z,9.50
2018-11-25T07:45:34.151Z,9.60
2018-11-25T07:48:02.616Z,8.83
2018-11-25T07:50:30.937Z,9.13
2018-11-25T07:52:59.227Z,10.07
2018-11-25T07:55:27.544Z,10.30
2018-11-25T07:57:57.828Z,10.10
2018-11-25T08:00:26.656Z,10.10
2018-11-25T08:02:55.041Z,10.27
2018-11-25T08:05:24.408Z,9.87
2018-11-25T08:07:52.739Z,9.87
2018-11-25T08:10:21.181Z,9.83
2018-11-25T08:12:49.506Z,10.30
2018-11-25T08:15:18.860Z,10.60
2018-11-25T08:17:47.191Z,9.97
2018-11-25T08:20:17.153Z,9.77
2018-11-25T08:22:45.479Z,10.50
2018-11-25T08:25:17.809Z,10.30
2018-11-25T08:27:46.103Z,9.80
2018-11-25T08:30:18.480Z,9.27
2018-11-25T08:32:46.830Z,10.70
2018-11-25T08:35:15.843Z,9.60
2018-11-25T08:37:44.290Z,10.43
2018-11-25T08:40:14.551Z,10.57
2018-11-25T08:42:42.852Z,10.57
2018-11-25T08:45:12.122Z,11.30
2018-11-25T08:47:40.483Z,10.23
2018-11-25T08:50:16.356Z,10.47
2018-11-25T08:52:46.051Z,10.80
2018-11-25T08:55:17.625Z,10.57
2018-11-25T08:57:46.118Z,10.53
2018-11-25T09:00:18.481Z,10.30
2018-11-25T09:02:47.027Z,11.57
2018-11-25T09:05:15.877Z,11.20
2018-11-25T09:07:44.275Z,11.33
2018-11-25T09:10:15.797Z,11.80
2018-11-25T09:12:44.871Z,11.10
2018-11-25T09:15:14.702Z,10.63
2018-11-25T09:17:43.115Z,11.60
2018-11-25T09:20:13.767Z,11.40
2018-11-25T09:22:42.215Z,10.80
2018-11-25T09:25:14.068Z,11.50
2018-11-25T09:27:42.392Z,11.57
2018-11-25T09:30:14.964Z,11.70
2018-11-25T09:32:43.312Z,12.07
2018-11-25T09:35:11.676Z,11.37
2018-11-25T09:37:40.144Z,13.23
2018-11-25T09:40:10.394Z,11.43
2018-11-25T09:42:38.772Z,12.40
2018-11-25T09:45:11.627Z,13.90
2018-11-25T09:47:40.336Z,13.33
2018-11-25T09:50:11.094Z,12.67
2018-11-25T09:52:40.007Z,13.67
2018-11-25T09:55:12.151Z,12.97
2018-11-25T09:57:42.250Z,13.07
2018-11-25T10:00:19.709Z,12.17
2018-11-25T10:02:48.727Z,12.27
2018-11-25T10:05:18.197Z,11.87
2018-11-25T10:07:48.221Z,11.50
2018-11-25T10:10:18.085Z,12.30
2018-11-25T10:12:46.548Z,12.03
2018-11-25T10:15:15.937Z,13.07
2018-11-25T10:17:45.131Z,12.20
2018-11-25T10:20:20.853Z,12.70
2018-11-25T10:22:49.355Z,12.50
2018-11-25T10:25:18.035Z,12.20
2018-11-25T10:27:46.777Z,11.63
2018-11-25T10:30:16.862Z,12.73
2018-11-25T10:32:45.836Z,12.83
2018-11-25T10:35:14.199Z,13.27
2018-11-25T10:37:42.501Z,13.83
2018-11-25T10:40:11.943Z,12.40
2018-11-25T10:42:40.299Z,13.80
2018-11-25T10:45:11.875Z,13.30
2018-11-25T10:47:40.204Z,12.70
2018-11-25T10:50:10.172Z,12.57
2018-11-25T10:52:38.472Z,12.97
2018-11-25T10:55:08.460Z,12.93
2018-11-25T10:57:36.931Z,12.23
2018-11-25T11:00:11.188Z,11.90
2018-11-25T11:02:44.832Z,12.30
2018-11-25T11:05:18.544Z,11.57
2018-11-25T11:07:46.856Z,12.43
2018-11-25T11:10:15.155Z,12.63
2018-11-25T11:12:43.475Z,11.63
2018-11-25T11:15:12.065Z,12.53
2018-11-25T11:17:40.391Z,12.20
2018-11-25T11:20:09.858Z,12.10
2018-11-25T11:22:38.201Z,12.13
2018-11-25T11:25:07.939Z,11.70
2018-11-25T11:27:36.312Z,11.63
2018-11-25T11:30:06.935Z,11.93
2018-11-25T11:32:35.354Z,12.03
2018-11-25T11:35:03.938Z,12.27
2018-11-25T11:37:32.251Z,12.33
2018-11-25T11:40:00.553Z,10.50
2018-11-25T11:42:29.008Z,10.13
2018-11-25T11:44:57.211Z,9.80
2018-11-25T11:47:25.538Z,9.20
2018-11-25T11:49:53.848Z,9.27
2018-11-25T11:52:22.169Z,9.30
2018-11-25T11:54:50.478Z,9.90
2018-11-25T11:57:18.796Z,9.57
2018-11-25T11:59:47.151Z,9.00
2018-11-25T12:02:15.467Z,8.93
2018-11-25T12:04:43.765Z,9.13
2018-11-25T12:07:12.083Z,9.93
2018-11-25T12:09:40.379Z,9.37
2018-11-25T12:12:08.689Z,9.67
2018-11-25T12:14:36.972Z,9.13
2018-11-25T12:17:05.656Z,9.20
2018-11-25T12:19:33.966Z,8.87
2018-11-25T12:22:02.292Z,11.53
2018-11-25T12:24:30.583Z,10.93
2018-11-25T12:26:58.904Z,11.40
2018-11-25T12:29:27.222Z,10.23
2018-11-25T12:31:55.548Z,10.27
2018-11-25T12:34:23.860Z,11.40
2018-11-25T12:36:53.415Z,10.53
2018-11-25T12:39:20.505Z,9.87
2018-11-25T12:41:48.848Z,9.53
2018-11-25T12:44:17.148Z,9.93
2018-11-25T12:46:45.467Z,9.03
2018-11-25T12:49:13.763Z,8.80
2018-11-25T12:51:42.103Z,9.10
2018-11-25T12:54:10.600Z,9.30
2018-11-25T12:56:38.905Z,10.07
2018-11-25T12:59:07.241Z,9.87
2018-11-25T13:01:35.552Z,10.00
2018-11-25T13:04:03.906Z,9.50
2018-11-25T13:06:32.222Z,10.00
2018-11-25T13:09:00.552Z,10.53
2018-11-25T13:11:28.851Z,10.20
2018-11-25T13:13:57.171Z,10.50
2018-11-25T13:16:25.509Z,10.20
2018-11-25T13:18:53.940Z,10.80
2018-11-25T13:21:22.236Z,10.87
2018-11-25T13:23:50.556Z,11.23
2018-11-25T13:26:18.863Z,11.83
2018-11-25T13:28:48.027Z,12.67
2018-11-25T13:31:16.347Z,12.97
2018-11-25T13:33:44.672Z,13.87
2018-11-25T13:36:13.012Z,13.60
2018-11-25T13:38:41.338Z,13.70
2018-11-25T13:41:09.656Z,13.77
2018-11-25T13:43:37.980Z,14.30
2018-11-25T13:46:06.285Z,13.93
2018-11-25T13:48:34.622Z,12.90
2018-11-25T13:51:08.090Z,15.33
2018-11-25T13:53:36.448Z,14.30
2018-11-25T13:56:04.834Z,14.20
2018-11-25T13:58:33.180Z,15.07
2018-11-25T14:01:01.556Z,14.73
2018-11-25T14:03:32.742Z,14.90
2018-11-25T14:06:01.098Z,14.70
2018-11-25T14:08:29.696Z,15.60
2018-11-25T14:11:10.274Z,16.00
2018-11-25T14:13:38.601Z,15.87
2018-11-25T14:16:08.351Z,14.87
2018-11-25T14:18:36.677Z,17.43
2018-11-25T14:21:05.424Z,16.83
2018-11-25T14:23:33.746Z,16.50
2018-11-25T14:26:07.340Z,16.90
2018-11-25T14:28:35.666Z,15.30
2018-11-25T14:31:04.008Z,16.37
2018-11-25T14:33:32.552Z,18.27
2018-11-25T14:36:00.868Z,17.73
2018-11-25T14:38:29.204Z,18.37
2018-11-25T14:40:57.505Z,17.20
2018-11-25T14:43:25.855Z,17.43
2018-11-25T14:45:54.161Z,16.13
2018-11-25T14:48:22.479Z,16.83
2018-11-25T14:50:50.796Z,15.43
2018-11-25T14:53:19.151Z,16.27
2018-11-25T14:55:47.543Z,15.77
2018-11-25T14:58:15.873Z,16.43
2018-11-25T15:00:44.206Z,16.17
2018-11-25T15:03:12.520Z,16.57
2018-11-25T15:05:44.440Z,16.70
2018-11-25T15:08:15.420Z,16.93
2018-11-25T15:10:43.719Z,16.27
2018-11-25T15:13:12.025Z,15.97
2018-11-25T15:15:40.439Z,15.93
2018-11-25T15:18:09.461Z,15.80
2018-11-25T15:20:37.803Z,15.93
2018-11-25T15:23:09.563Z,15.90
2018-11-25T15:25:40.366Z,15.23
2018-11-25T15:28:08.892Z,17.10
2018-11-25T15:30:37.248Z,15.67
2018-11-25T15:33:05.696Z,15.00
2018-11-25T15:35:34.053Z,16.50
2018-11-25T15:38:02.500Z,15.50
2018-11-25T15:40:33.215Z,16.37
2018-11-25T15:43:01.584Z,15.57
2018-11-25T15:45:30.171Z,19.17
2018-11-25T15:48:07.382Z,17.20
2018-11-25T15:50:35.748Z,16.60
2018-11-25T15:53:04.941Z,15.83
2018-11-25T15:55:33.365Z,16.23
2018-11-25T15:58:01.672Z,15.57
2018-11-25T16:00:29.995Z,15.77
2018-11-25T16:02:58.295Z,16.03
2018-11-25T16:05:32.013Z,15.90
2018-11-25T16:08:00.347Z,15.10
2018-11-25T16:10:28.675Z,16.13
2018-11-25T16:12:57.019Z,15.70
2018-11-25T16:15:26.770Z,16.03
2018-11-25T16:17:55.123Z,17.47
2018-11-25T16:20:26.472Z,17.27
2018-11-25T16:22:59.327Z,17.73
2018-11-25T16:25:40.128Z,17.73
2018-11-25T16:28:13.291Z,15.50
2018-11-25T16:30:41.627Z,17.40
2018-11-25T16:33:09.956Z,16.93
2018-11-25T16:35:38.288Z,17.43
2018-11-25T16:38:08.206Z,16.63
2018-11-25T16:40:36.624Z,16.70
2018-11-25T16:43:05.423Z,15.77
2018-11-25T16:45:33.740Z,17.03
2018-11-25T16:48:02.251Z,16.90
2018-11-25T16:50:30.671Z,16.67
2018-11-25T16:52:59.006Z,17.13
2018-11-25T16:55:27.315Z,16.60
2018-11-25T16:57:55.640Z,16.97
2018-11-25T17:00:23.964Z,16.87
2018-11-25T17:02:52.260Z,16.90
2018-11-25T17:05:23.580Z,16.40
2018-11-25T17:07:55.969Z,17.03
2018-11-25T17:10:24.289Z,18.23
2018-11-25T17:12:52.611Z,16.53
2018-11-25T17:15:22.455Z,16.27
2018-11-25T17:17:52.227Z,16.47
2018-11-25T17:20:20.840Z,17.57
2018-11-25T17:22:49.271Z,16.40
2018-11-25T17:25:17.692Z,16.33
2018-11-25T17:27:46.741Z,16.10
2018-11-25T17:30:17.141Z,16.50
2018-11-25T17:32:46.120Z,16.43
2018-11-25T17:35:18.580Z,16.33
2018-11-25T17:37:47.056Z,16.47
2018-11-25T17:40:15.392Z,16.03
2018-11-25T17:42:43.708Z,17.90
2018-11-25T17:45:13.152Z,16.50
2018-11-25T17:47:41.907Z,21.68
2018-11-25T17:50:15.889Z,18.07
2018-11-25T17:52:44.440Z,16.90
2018-11-25T17:55:13.681Z,16.03
2018-11-25T17:57:45.413Z,18.07
2018-11-25T18:00:19.264Z,17.50
2018-11-25T18:02:47.592Z,16.63
2018-11-25T18:05:15.919Z,17.00
2018-11-25T18:07:45.116Z,16.70
2018-11-25T18:10:13.937Z,17.00
2018-11-25T18:12:42.462Z,16.93
2018-11-25T18:15:14.584Z,17.20
2018-11-25T18:17:47.472Z,17.13
2018-11-25T18:20:15.774Z,16.87
2018-11-25T18:22:46.388Z,18.10
2018-11-25T18:25:14.701Z,17.57
2018-11-25T18:27:43.171Z,18.60
2018-11-25T18:30:15.115Z,18.40
2018-11-25T18:32:44.041Z,18.50
2018-11-25T18:35:12.614Z,18.10
2018-11-25T18:37:41.660Z,18.10
2018-11-25T18:40:12.132Z,17.90
2018-11-25T18:42:40.710Z,18.87
2018-11-25T18:45:13.993Z,17.10
2018-11-25T18:47:43.500Z,19.87
2018-11-25T18:50:13.195Z,17.63
2018-11-25T18:52:42.105Z,18.23
2018-11-25T18:55:09.384Z,17.53
2018-11-25T18:57:37.707Z,18.43
2018-11-25T19:00:09.984Z,18.27
2018-11-25T19:02:40.547Z,17.63
2018-11-25T19:05:08.903Z,17.30
2018-11-25T19:07:37.259Z,17.53
2018-11-25T19:10:12.345Z,16.67
2018-11-25T19:12:44.313Z,17.17
2018-11-25T19:15:10.533Z,18.33
2018-11-25T19:17:38.868Z,18.23
2018-11-25T19:20:17.241Z,17.17
2018-11-25T19:22:45.572Z,18.43
2018-11-25T19:25:16.121Z,20.93
2018-11-25T19:27:45.372Z,19.20
2018-11-25T19:30:15.138Z,17.77
2018-11-25T19:32:44.659Z,19.17
2018-11-25T19:35:13.956Z,18.10
2018-11-25T19:37:43.061Z,17.40
2018-11-25T19:40:14.258Z,17.43
2018-11-25T19:42:43.105Z,17.07
2018-11-25T19:45:12.988Z,17.10
2018-11-25T19:47:41.312Z,16.80
2018-11-25T19:50:11.695Z,18.30
2018-11-25T19:52:40.090Z,17.10
2018-11-25T19:55:08.467Z,18.50
2018-11-25T19:57:36.787Z,17.87
2018-11-25T20:00:14.571Z,17.37
2018-11-25T20:02:42.944Z,18.30
2018-11-25T20:05:12.401Z,17.23
2018-11-25T20:07:41.056Z,17.87
2018-11-25T20:10:11.468Z,18.13
2018-11-25T20:12:40.156Z,17.10
2018-11-25T20:15:09.860Z,18.83
2018-11-25T20:17:38.222Z,19.50
2018-11-25T20:20:14.770Z,18.03
2018-11-25T20:22:43.194Z,18.27
2018-11-25T20:25:12.465Z,18.13
2018-11-25T20:27:44.265Z,19.07
2018-11-25T20:30:14.821Z,18.30
2018-11-25T20:32:48.396Z,17.80
2018-11-25T20:35:17.646Z,19.17
2018-11-25T20:37:52.407Z,17.80
2018-11-25T20:40:20.763Z,16.80
2018-11-25T20:42:49.298Z,17.97
2018-11-25T20:46:22.543Z,16.93
2018-11-25T20:48:50.860Z,18.83
2018-11-25T20:51:23.930Z,17.57
2018-11-25T20:53:58.209Z,16.90
2018-11-25T20:56:26.516Z,17.60
2018-11-25T20:58:54.867Z,17.63
2018-11-25T21:01:23.235Z,17.83
2018-11-25T21:03:51.889Z,18.07
2018-11-25T21:06:20.188Z,16.90
2018-11-25T21:08:48.515Z,15.77
2018-11-25T21:11:17.164Z,16.30
2018-11-25T21:13:45.599Z,15.53
2018-11-25T21:16:13.904Z,15.63
2018-11-25T21:18:42.267Z,15.77
2018-11-25T21:21:10.872Z,15.50
2018-11-25T21:23:39.544Z,15.97
2018-11-25T21:26:07.928Z,16.77
2018-11-25T21:28:36.560Z,16.87
2018-11-25T21:31:05.572Z,17.30
2018-11-25T21:33:34.203Z,17.03
2018-11-25T21:36:02.744Z,16.47
2018-11-25T21:38:31.044Z,16.17
2018-11-25T21:40:59.391Z,16.53
2018-11-25T21:43:27.700Z,16.77
2018-11-25T21:45:56.176Z,17.00
2018-11-25T21:48:24.496Z,17.07
2018-11-25T21:50:53.082Z,16.20
2018-11-25T21:53:21.628Z,16.87
2018-11-25T21:58:18.391Z,16.33
2018-11-25T22:00:46.720Z,16.77
2018-11-25T22:03:15.020Z,17.57
2018-11-25T22:05:43.492Z,18.03
2018-11-25T22:08:11.788Z,17.70
2018-11-25T22:10:40.270Z,18.10
2018-11-25T22:13:08.595Z,16.67
2018-11-25T22:15:36.944Z,18.43
2018-11-25T22:18:05.300Z,17.20
2018-11-25T22:20:33.621Z,18.30
2018-11-25T22:23:01.922Z,17.97
2018-11-25T22:25:30.252Z,16.03
2018-11-25T22:27:58.681Z,17.03
2018-11-25T22:30:27.033Z,16.40
2018-11-25T22:32:55.335Z,17.10
2018-11-25T22:35:24.078Z,16.87
2018-11-25T22:37:52.378Z,15.60
2018-11-25T22:40:20.923Z,16.03
2018-11-25T22:42:50.481Z,16.17
2018-11-25T22:45:21.063Z,17.03
2018-11-25T22:47:49.365Z,16.60
2018-11-25T22:50:19.879Z,21.25
2018-11-25T22:52:48.442Z,17.73
2018-11-25T22:55:18.076Z,15.73
2018-11-25T22:57:46.380Z,16.53
2018-11-25T23:00:21.266Z,16.70
2018-11-25T23:02:49.581Z,17.27
2018-11-25T23:05:29.262Z,16.57
2018-11-25T23:07:57.567Z,16.60
2018-11-25T23:10:25.903Z,18.37
2018-11-25T23:12:54.229Z,17.03
2018-11-25T23:15:22.581Z,16.43
2018-11-25T23:17:50.881Z,16.43
2018-11-25T23:20:19.214Z,16.93
2018-11-25T23:22:47.523Z,16.03
2018-11-25T23:25:15.851Z,16.10
2018-11-25T23:27:44.235Z,16.67
2018-11-25T23:30:12.592Z,16.00
2018-11-25T23:32:40.917Z,17.57
2018-11-25T23:35:14.847Z,17.20
2018-11-25T23:37:43.190Z,16.67
2018-11-25T23:40:11.575Z,16.10
2018-11-25T23:42:39.903Z,17.37
2018-11-25T23:45:12.602Z,15.67
2018-11-25T23:47:40.955Z,18.57
2018-11-25T23:50:10.448Z,17.90
2018-11-25T23:52:38.893Z,17.10
2018-11-25T23:55:10.579Z,16.83
2018-11-25T23:57:39.032Z,17.33
